Time;durP1;ratioP1;P1;durP2;ratioP2;P2;SDS_P1;SDS_P2;PMS_P1;PMS_P2;Temp;Humidity;BMP_temperature;BMP_pressure;BME280_temperature;BME280_humidity;BME280_pressure;Samples;Min_cycle;Max_cycle;Signal;HPM_P1;HPM_P2
2023/03/08 00:00:53;;;;;;;12.10;6.40;;;;;;;16.72;42.25;97287.91;265745;1279;22558;-80
2023/03/08 00:06:56;;;;;;;13.10;7.00;;;;;;;16.66;42.26;97292.46;265907;1275;22514;-81
2023/03/08 00:12:59;;;;;;;13.40;7.00;;;;;;;16.54;42.57;97289.65;266307;1280;23082;-81
2023/03/08 00:19:02;;;;;;;14.10;7.30;;;;;;;16.66;42.43;97299.56;266131;1280;24854;-77
2023/03/08 00:25:07;;;;;;;13.00;6.70;;;;;;;16.78;42.35;97304.30;266014;1280;22566;-77
2023/03/08 00:31:12;;;;;;;13.10;7.40;;;;;;;16.75;42.42;97307.73;266192;1278;22557;-76
2023/03/08 00:37:15;;;;;;;14.80;7.80;;;;;;;16.79;42.35;97304.91;266390;1278;25376;-76
2023/03/08 00:43:21;;;;;;;13.90;8.00;;;;;;;17.11;41.95;97298.11;265955;1276;22946;-76
2023/03/08 00:49:24;;;;;;;14.10;7.20;;;;;;;16.86;42.24;97297.61;265908;1279;25351;-76
2023/03/08 00:55:26;;;;;;;14.50;8.30;;;;;;;16.91;42.26;97297.96;265928;1279;22877;-77
2023/03/08 01:01:32;;;;;;;13.50;7.10;;;;;;;17.08;42.09;97303.23;265998;1278;22524;-77
2023/03/08 01:07:36;;;;;;;11.10;6.30;;;;;;;17.03;42.20;97308.13;266067;1275;22594;-77
2023/03/08 01:13:39;;;;;;;12.70;6.70;;;;;;;17.18;41.99;97305.48;266301;1279;22638;-77
2023/03/08 01:19:42;;;;;;;12.60;6.40;;;;;;;16.95;42.19;97311.15;266276;1277;22638;-78
2023/03/08 01:25:45;;;;;;;14.80;7.60;;;;;;;16.69;42.65;97312.09;266038;1278;25393;-78
2023/03/08 01:31:48;;;;;;;14.00;7.60;;;;;;;16.70;42.87;97311.36;266212;1278;22527;-77
2023/03/08 01:37:54;;;;;;;14.90;7.50;;;;;;;16.76;42.73;97308.02;266328;1278;22563;-78
2023/03/08 01:43:57;;;;;;;16.90;8.30;;;;;;;16.74;42.77;97311.48;266103;1278;23036;-79
2023/03/08 01:50:05;;;;;;;16.60;8.40;;;;;;;16.24;43.47;97314.17;266303;1272;25523;-79
2023/03/08 01:56:10;;;;;;;17.90;8.90;;;;;;;16.50;43.15;97312.59;266303;1276;22527;-79
2023/03/08 02:02:17;;;;;;;17.50;9.30;;;;;;;16.60;42.88;97313.46;266440;1278;22728;-79
2023/03/08 02:08:21;;;;;;;17.60;9.60;;;;;;;16.13;43.48;97313.63;265835;1273;22563;-76
2023/03/08 02:14:26;;;;;;;19.60;10.00;;;;;;;15.99;43.56;97310.77;265664;1278;25310;-74
2023/03/08 02:20:31;;;;;;;17.50;9.30;;;;;;;15.31;44.29;97310.64;265946;1278;22562;-74
2023/03/08 02:26:40;;;;;;;16.80;9.20;;;;;;;15.56;43.78;97299.16;266206;1264;23880;-74
2023/03/08 02:32:43;;;;;;;18.70;9.20;;;;;;;15.62;43.77;97301.73;265839;1276;22693;-79
2023/03/08 02:38:46;;;;;;;16.90;8.90;;;;;;;15.52;43.83;97302.14;265862;1279;22587;-76
2023/03/08 02:44:49;;;;;;;16.40;8.80;;;;;;;15.06;44.19;97310.86;265979;1279;22662;-75
2023/03/08 02:50:52;;;;;;;17.10;9.10;;;;;;;15.01;44.05;97306.40;266015;1279;22533;-77
2023/03/08 02:56:58;;;;;;;16.70;9.30;;;;;;;14.54;44.17;97311.60;265999;1280;22538;-78
2023/03/08 03:03:01;;;;;;;14.00;8.30;;;;;;;14.30;44.53;97304.67;265669;1279;22579;-76
2023/03/08 03:09:10;;;;;;;17.90;8.20;;;;;;;14.18;44.53;97303.27;265739;1278;24194;-78
2023/03/08 03:15:13;;;;;;;13.10;7.30;;;;;;;14.65;43.70;97303.88;265771;1280;22640;-76
2023/03/08 03:21:16;;;;;;;13.50;7.90;;;;;;;14.47;43.59;97308.53;265565;1273;23131;-76
2023/03/08 03:27:19;;;;;;;16.20;7.70;;;;;;;14.37;43.55;97323.96;265883;1277;22530;-76
2023/03/08 03:33:23;;;;;;;14.60;7.90;;;;;;;14.35;43.37;97331.57;265663;1279;25233;-75
2023/03/08 03:39:33;;;;;;;12.80;7.20;;;;;;;14.23;43.41;97342.59;265953;1277;22598;-77
2023/03/08 03:45:37;;;;;;;13.80;7.40;;;;;;;14.26;43.25;97353.23;266001;1277;23842;-76
2023/03/08 03:51:40;;;;;;;11.70;6.60;;;;;;;14.40;42.79;97360.46;265972;1280;22656;-76
2023/03/08 03:57:57;;;;;;;11.60;6.40;;;;;;;14.41;42.54;97374.13;265981;1274;26081;-76
2023/03/08 04:04:00;;;;;;;12.60;6.30;;;;;;;14.43;42.32;97391.50;266156;1280;22549;-79
2023/03/08 04:10:05;;;;;;;12.60;6.20;;;;;;;14.04;42.71;97401.96;266201;1273;22657;-80
2023/03/08 04:16:14;;;;;;;9.60;5.40;;;;;;;14.07;42.71;97409.71;265734;1280;22559;-79
2023/03/08 04:22:21;;;;;;;11.30;6.20;;;;;;;14.16;42.53;97424.53;265520;1276;23447;-79
2023/03/08 04:28:32;;;;;;;9.60;5.80;;;;;;;14.49;41.85;97425.11;265683;1279;25367;-80
2023/03/08 04:34:36;;;;;;;9.80;5.50;;;;;;;14.35;41.86;97432.58;266197;1273;22623;-79
2023/03/08 04:41:01;;;;;;;10.80;5.60;;;;;;;14.25;42.09;97447.52;266258;1277;24708;-78
2023/03/08 04:47:10;;;;;;;11.60;5.60;;;;;;;14.32;42.15;97447.05;265988;1278;22618;-78
2023/03/08 04:53:19;;;;;;;10.60;5.20;;;;;;;14.04;42.48;97459.84;265845;1278;22597;-78
2023/03/08 04:59:22;;;;;;;10.20;5.60;;;;;;;13.96;42.94;97456.02;265702;1279;23477;-78
2023/03/08 05:05:25;;;;;;;9.30;5.20;;;;;;;14.30;42.65;97460.86;265738;1256;22622;-78
2023/03/08 05:11:29;;;;;;;8.90;5.20;;;;;;;14.10;42.74;97462.78;265880;1278;25386;-78
2023/03/08 05:17:33;;;;;;;8.50;5.20;;;;;;;14.48;42.47;97466.91;266362;1272;25381;-77
2023/03/08 05:23:36;;;;;;;11.60;5.10;;;;;;;14.56;42.54;97473.98;266018;1278;22529;-77
2023/03/08 05:29:39;;;;;;;9.60;5.50;;;;;;;14.32;42.70;97471.55;266065;1273;22613;-78
2023/03/08 05:35:42;;;;;;;10.30;5.60;;;;;;;14.97;41.79;97474.80;266144;1275;22646;-78
2023/03/08 05:41:45;;;;;;;10.40;5.50;;;;;;;14.65;42.03;97483.15;266031;1278;24397;-77
2023/03/08 05:47:50;;;;;;;9.00;5.30;;;;;;;14.93;41.54;97482.45;266030;1273;24786;-80
2023/03/08 05:53:53;;;;;;;12.50;5.40;;;;;;;15.01;41.26;97486.39;266336;1275;22681;-79
2023/03/08 05:59:57;;;;;;;12.90;5.70;;;;;;;15.05;41.10;97490.59;266471;1270;23014;-80
2023/03/08 06:06:00;;;;;;;13.30;5.90;;;;;;;15.04;41.05;97501.04;266946;1278;25528;-77
2023/03/08 06:12:04;;;;;;;10.60;5.20;;;;;;;15.17;40.89;97530.48;267084;1278;23880;-83
2023/03/08 06:18:08;;;;;;;9.90;5.40;;;;;;;15.25;40.63;97521.54;267754;1278;25303;-82
2023/03/08 06:24:11;;;;;;;10.10;5.40;;;;;;;15.81;40.12;97526.69;266381;1272;24292;-78
2023/03/08 06:30:14;;;;;;;9.70;5.40;;;;;;;15.54;40.37;97523.10;266766;1278;22723;-78
2023/03/08 06:36:19;;;;;;;11.10;6.00;;;;;;;15.95;39.82;97527.69;266160;1278;24274;-76
2023/03/08 06:42:23;;;;;;;10.70;5.10;;;;;;;15.68;40.22;97553.39;265995;1272;24350;-83
2023/03/08 06:48:42;;;;;;;11.00;6.10;;;;;;;15.60;40.37;97561.15;265981;1279;25406;-77
2023/03/08 06:54:45;;;;;;;11.70;5.50;;;;;;;15.73;40.24;97576.11;266347;1270;25300;-78
2023/03/08 07:00:48;;;;;;;9.00;5.20;;;;;;;16.43;39.54;97575.38;266351;1277;22788;-77
2023/03/08 07:06:51;;;;;;;8.90;5.40;;;;;;;16.25;39.69;97589.70;266006;1279;22541;-77
2023/03/08 07:12:55;;;;;;;16.80;7.50;;;;;;;16.41;39.44;97596.14;266286;1275;23124;-77
2023/03/08 07:19:02;;;;;;;11.60;5.60;;;;;;;16.57;39.42;97592.26;265947;1279;22554;-77
2023/03/08 07:25:07;;;;;;;10.40;5.70;;;;;;;16.27;39.59;97602.53;266352;1278;24312;-77
2023/03/08 07:31:11;;;;;;;9.50;5.70;;;;;;;16.79;39.03;97612.72;266198;1279;22607;-79
2023/03/08 07:37:16;;;;;;;9.00;5.80;;;;;;;16.64;38.96;97614.95;266233;1272;22597;-77
2023/03/08 07:43:19;;;;;;;9.30;5.60;;;;;;;16.60;39.10;97610.64;266182;1272;24219;-77
2023/03/08 07:49:32;;;;;;;9.40;5.60;;;;;;;15.99;39.92;97602.89;265897;1280;245035;-76
2023/03/08 07:55:36;;;;;;;12.30;6.30;;;;;;;16.18;39.79;97606.88;266111;1272;25359;-77
2023/03/08 08:01:41;;;;;;;10.00;5.60;;;;;;;15.75;40.32;97606.55;265840;1272;22591;-76
2023/03/08 08:07:46;;;;;;;9.40;5.40;;;;;;;15.95;40.33;97623.87;265906;1276;22535;-79
2023/03/08 08:13:49;;;;;;;11.20;5.80;;;;;;;16.71;39.43;97637.02;265646;1280;22530;-78
2023/03/08 08:19:53;;;;;;;8.80;5.20;;;;;;;16.57;39.55;97637.30;265833;1278;22672;-76
2023/03/08 08:25:56;;;;;;;9.50;5.40;;;;;;;16.50;39.76;97641.25;265860;1276;22528;-78
2023/03/08 08:32:01;;;;;;;11.90;6.30;;;;;;;16.29;40.03;97640.48;265971;1272;23896;-77
2023/03/08 08:38:04;;;;;;;10.20;5.80;;;;;;;16.09;40.15;97640.23;266415;1277;24240;-80
2023/03/08 08:44:08;;;;;;;10.40;5.80;;;;;;;16.06;40.11;97628.49;266544;1272;22602;-80
2023/03/08 08:50:11;;;;;;;8.30;5.20;;;;;;;16.34;39.71;97620.29;266622;1272;26491;-80
2023/03/08 08:56:18;;;;;;;8.80;5.30;;;;;;;16.13;39.88;97628.71;266037;1272;22585;-79
2023/03/08 09:02:29;;;;;;;10.30;5.30;;;;;;;16.42;39.33;97629.85;266185;1277;25414;-78
2023/03/08 09:08:32;;;;;;;8.10;5.00;;;;;;;16.50;39.36;97626.83;266078;1272;22521;-77
2023/03/08 09:14:35;;;;;;;9.50;5.80;;;;;;;16.93;38.34;97617.55;266020;1270;23275;-77
2023/03/08 09:20:38;;;;;;;9.40;5.30;;;;;;;17.06;38.06;97620.09;265922;1272;25335;-78
2023/03/08 09:26:41;;;;;;;10.50;5.60;;;;;;;17.21;37.86;97620.40;265898;1273;22565;-77
2023/03/08 09:32:45;;;;;;;10.10;5.40;;;;;;;16.47;38.87;97621.20;265809;1277;22963;-77
2023/03/08 09:38:52;;;;;;;11.00;5.00;;;;;;;17.54;37.59;97600.09;266156;1275;25278;-78
2023/03/08 09:45:01;;;;;;;8.50;5.10;;;;;;;17.02;37.89;97605.77;265804;1272;22699;-78
2023/03/08 09:51:10;;;;;;;7.80;4.90;;;;;;;16.86;38.03;97625.81;265686;1279;25351;-78
2023/03/08 09:57:17;;;;;;;8.10;4.60;;;;;;;17.51;37.04;97617.30;265659;1275;22558;-77
2023/03/08 10:03:47;;;;;;;9.40;5.30;;;;;;;17.92;36.71;97622.67;265915;1279;25236;-80
2023/03/08 10:10:09;;;;;;;7.70;5.00;;;;;;;18.57;35.77;97608.95;267343;1279;22531;-81
2023/03/08 10:16:19;;;;;;;8.20;4.90;;;;;;;18.35;35.98;97601.02;267289;1272;22565;-80
2023/03/08 10:22:31;;;;;;;7.80;5.10;;;;;;;18.68;35.70;97593.44;266118;1277;22171;-78
2023/03/08 10:28:34;;;;;;;9.50;5.20;;;;;;;18.63;35.59;97599.59;265789;1272;22516;-79
2023/03/08 10:34:37;;;;;;;9.80;5.30;;;;;;;18.50;35.71;97602.17;265863;1274;24203;-79
2023/03/08 10:40:40;;;;;;;8.10;4.90;;;;;;;18.38;35.76;97592.45;265685;1272;24251;-79
2023/03/08 10:46:47;;;;;;;7.50;4.10;;;;;;;18.58;35.23;97586.97;265536;1277;22748;-78
2023/03/08 10:52:51;;;;;;;8.30;5.00;;;;;;;18.56;35.10;97592.50;266079;1272;24148;-79
2023/03/08 10:58:56;;;;;;;8.40;5.60;;;;;;;19.17;34.77;97578.35;265842;1272;23156;-78
2023/03/08 11:04:59;;;;;;;7.50;4.80;;;;;;;18.69;35.22;97571.70;265962;1272;22627;-79
2023/03/08 11:11:07;;;;;;;7.80;4.60;;;;;;;18.44;35.25;97571.75;265686;1276;24593;-82
2023/03/08 11:17:16;;;;;;;7.20;4.70;;;;;;;18.61;34.95;97572.98;265847;1279;25432;-82
2023/03/08 11:23:59;;;;;;;9.30;4.50;;;;;;;19.40;34.26;97566.16;265830;1279;22560;-79
2023/03/08 11:30:05;;;;;;;6.90;4.50;;;;;;;18.89;34.29;97562.21;265021;1280;22962;-81
2023/03/08 11:36:23;;;;;;;8.00;4.50;;;;;;;19.60;33.66;97550.16;265409;1283;22522;-81
2023/03/08 11:42:40;;;;;;;6.80;4.50;;;;;;;19.58;33.61;97546.33;266140;1278;22542;-80
2023/03/08 11:49:05;;;;;;;6.60;4.30;;;;;;;19.65;33.07;97545.21;265238;1280;23666;-80
2023/03/08 11:55:51;;;;;;;6.80;4.00;;;;;;;20.01;32.48;97536.35;265170;1278;22669;-81
2023/03/08 12:02:03;;;;;;;7.40;4.40;;;;;;;20.45;32.13;97530.65;264165;1287;22568;-82
2023/03/08 12:08:13;;;;;;;7.50;4.60;;;;;;;20.44;32.27;97527.34;266035;1286;22708;-82
2023/03/08 12:14:32;;;;;;;7.00;4.10;;;;;;;20.06;32.60;97532.84;266251;1280;25298;-83
2023/03/08 12:20:45;;;;;;;6.50;4.10;;;;;;;19.67;32.65;97540.73;266103;1286;22569;-82
2023/03/08 12:27:15;;;;;;;8.00;4.40;;;;;;;19.69;32.87;97532.98;266774;1279;22567;-80
2023/03/08 12:33:18;;;;;;;8.80;4.80;;;;;;;20.34;32.51;97513.59;265014;1280;22494;-83
2023/03/08 12:39:29;;;;;;;7.30;4.30;;;;;;;20.91;32.14;97493.05;266345;1280;25513;-82
2023/03/08 12:45:33;;;;;;;7.30;4.30;;;;;;;21.20;31.91;97484.40;266111;1272;22560;-81
2023/03/08 12:51:39;;;;;;;6.70;4.20;;;;;;;21.34;32.10;97476.05;265812;1273;22580;-80
2023/03/08 12:57:50;;;;;;;8.10;4.60;;;;;;;21.04;32.26;97475.85;265595;1277;23316;-78
2023/03/08 13:03:54;;;;;;;7.70;4.60;;;;;;;20.95;32.12;97481.50;265779;1278;26653;-85
2023/03/08 13:09:59;;;;;;;7.20;4.20;;;;;;;21.13;32.03;97476.14;266091;1272;25415;-77
2023/03/08 13:16:15;;;;;;;9.10;4.40;;;;;;;21.88;31.61;97465.78;266066;1279;25294;-77
2023/03/08 13:22:24;;;;;;;6.30;4.20;;;;;;;22.07;31.19;97461.48;265764;1272;24059;-80
2023/03/08 13:28:33;;;;;;;8.90;4.80;;;;;;;21.97;31.12;97453.99;265907;1279;22564;-79
2023/03/08 13:35:03;;;;;;;6.90;3.80;;;;;;;22.06;31.03;97434.16;266088;1275;25895;-80
2023/03/08 13:41:06;;;;;;;6.70;3.90;;;;;;;22.10;30.67;97437.88;267462;1279;22673;-77
2023/03/08 13:47:32;;;;;;;7.00;4.10;;;;;;;22.15;30.48;97433.95;266003;1272;25339;-76
2023/03/08 13:53:36;;;;;;;7.60;4.40;;;;;;;22.44;30.24;97428.52;265919;1272;25343;-77
2023/03/08 13:59:46;;;;;;;6.90;4.00;;;;;;;22.07;30.34;97415.36;265653;1279;22566;-78
2023/03/08 14:05:49;;;;;;;6.50;4.10;;;;;;;22.04;30.59;97414.96;265698;1272;24357;-78
2023/03/08 14:11:58;;;;;;;5.80;3.70;;;;;;;22.02;30.59;97404.67;266050;1272;25258;-78
2023/03/08 14:18:03;;;;;;;10.80;4.10;;;;;;;22.06;30.66;97399.33;265778;1272;25301;-76
2023/03/08 14:24:20;;;;;;;6.60;3.90;;;;;;;21.93;30.88;97390.34;265653;1275;25237;-78
2023/03/08 14:30:29;;;;;;;7.20;4.00;;;;;;;21.66;31.04;97377.05;265851;1275;25341;-77
2023/03/08 14:36:32;;;;;;;7.60;4.00;;;;;;;21.67;30.97;97371.77;265996;1256;22616;-75
2023/03/08 14:42:44;;;;;;;8.30;4.50;;;;;;;21.18;31.40;97359.58;265728;1278;22547;-76
2023/03/08 14:48:56;;;;;;;7.80;4.00;;;;;;;21.39;31.29;97343.83;265662;1274;24208;-76
2023/03/08 14:55:21;;;;;;;9.10;4.70;;;;;;;20.49;32.36;97335.46;265753;1272;22527;-77
2023/03/08 15:01:33;;;;;;;8.20;4.40;;;;;;;20.65;32.41;97327.93;266260;1272;22529;-77
2023/03/08 15:07:39;;;;;;;6.70;3.70;;;;;;;20.21;32.84;97312.50;265768;1272;23390;-77
2023/03/08 15:13:44;;;;;;;5.60;3.50;;;;;;;20.27;32.50;97309.59;265558;1280;23893;-77
2023/03/08 15:19:47;;;;;;;9.30;4.40;;;;;;;20.83;32.13;97303.09;265723;1278;22544;-77
2023/03/08 15:25:51;;;;;;;9.10;4.40;;;;;;;20.76;32.59;97311.71;265491;1272;22754;-77
2023/03/08 15:31:54;;;;;;;5.90;3.20;;;;;;;20.04;33.53;97313.11;265774;1272;23252;-78
2023/03/08 15:37:58;;;;;;;3.90;2.70;;;;;;;19.63;34.15;97321.54;266144;1270;25504;-77
2023/03/08 15:44:01;;;;;;;4.90;2.70;;;;;;;19.66;34.38;97317.11;265885;1275;24791;-76
2023/03/08 15:50:06;;;;;;;5.70;2.80;;;;;;;19.73;34.98;97312.31;265698;1272;24292;-76
2023/03/08 15:56:09;;;;;;;4.30;2.80;;;;;;;19.29;36.32;97313.64;265872;1278;22636;-76
2023/03/08 16:02:14;;;;;;;5.10;3.00;;;;;;;19.35;37.07;97320.98;266145;1275;22527;-77
2023/03/08 16:08:18;;;;;;;5.90;3.20;;;;;;;19.48;37.58;97327.52;265862;1279;25524;-76
2023/03/08 16:14:20;;;;;;;5.70;3.00;;;;;;;19.37;38.87;97326.11;266087;1272;25504;-75
2023/03/08 16:20:24;;;;;;;6.20;3.50;;;;;;;19.44;38.64;97322.30;266168;1275;23027;-77
2023/03/08 16:26:30;;;;;;;7.20;3.70;;;;;;;19.16;39.25;97312.64;266226;1272;25518;-83
2023/03/08 16:32:33;;;;;;;7.90;3.60;;;;;;;19.35;39.30;97306.11;267393;1275;22763;-78
2023/03/08 16:38:36;;;;;;;6.50;3.90;;;;;;;19.11;40.67;97313.27;266312;1275;22656;-78
2023/03/08 16:44:40;;;;;;;7.30;3.80;;;;;;;19.00;41.21;97316.92;266324;1275;26603;-78
2023/03/08 16:51:02;;;;;;;9.50;4.90;;;;;;;18.88;41.81;97318.91;266370;1275;22529;-78
2023/03/08 16:57:06;;;;;;;7.60;4.20;;;;;;;18.93;42.64;97322.52;266244;1278;22565;-78
2023/03/08 17:03:21;;;;;;;8.50;5.00;;;;;;;18.77;42.98;97325.35;266472;1273;22613;-75
2023/03/08 17:09:24;;;;;;;12.40;6.40;;;;;;;18.47;43.80;97318.55;266379;1272;22711;-77
2023/03/08 17:15:30;;;;;;;10.50;5.60;;;;;;;18.35;44.08;97311.65;266284;1277;22564;-76
2023/03/08 17:21:37;;;;;;;8.00;4.80;;;;;;;18.06;44.45;97314.69;266770;1273;22558;-79
2023/03/08 17:27:40;;;;;;;8.90;4.60;;;;;;;18.51;44.38;97313.09;266271;1275;23132;-77
2023/03/08 17:33:44;;;;;;;8.90;5.00;;;;;;;18.60;45.40;97295.92;266492;1279;22519;-78
2023/03/08 17:39:47;;;;;;;7.90;4.80;;;;;;;18.50;45.29;97286.09;266361;1278;22515;-79
2023/03/08 17:46:01;;;;;;;9.80;5.10;;;;;;;18.39;45.80;97283.14;266298;1274;24151;-78
2023/03/08 17:52:06;;;;;;;10.40;5.80;;;;;;;18.53;46.31;97272.38;266507;1272;25326;-78
2023/03/08 17:58:10;;;;;;;11.00;5.60;;;;;;;18.34;47.21;97270.48;266698;1278;22666;-85
2023/03/08 18:04:20;;;;;;;9.60;5.40;;;;;;;18.31;47.53;97256.83;266683;1277;22527;-79
2023/03/08 18:10:25;;;;;;;9.70;5.70;;;;;;;18.19;48.19;97254.02;266727;1278;24180;-85
2023/03/08 18:16:31;;;;;;;9.40;5.10;;;;;;;17.89;49.21;97242.14;267163;1280;22526;-83
2023/03/08 18:22:37;;;;;;;11.10;5.90;;;;;;;17.83;49.82;97232.71;266693;1280;22565;-89
2023/03/08 18:28:41;;;;;;;11.50;6.30;;;;;;;17.72;50.08;97229.38;266765;1280;25297;-87
2023/03/08 18:34:44;;;;;;;10.70;5.80;;;;;;;17.88;49.84;97216.77;266762;1272;24424;-80
2023/03/08 18:40:47;;;;;;;11.50;5.90;;;;;;;17.83;50.15;97207.64;265880;1279;23880;-76
2023/03/08 18:46:51;;;;;;;11.30;5.40;;;;;;;17.96;50.00;97204.30;266165;1276;25290;-79
2023/03/08 18:52:56;;;;;;;12.80;6.20;;;;;;;17.96;50.43;97187.51;265806;1279;26616;-76
2023/03/08 18:59:03;;;;;;;14.40;5.80;;;;;;;18.24;49.36;97170.08;265931;1273;24179;-76
2023/03/08 19:05:09;;;;;;;11.70;5.90;;;;;;;18.00;49.70;97157.76;267348;1280;22583;-85
2023/03/08 19:11:16;;;;;;;10.30;6.10;;;;;;;17.98;49.79;97150.30;267404;1280;22535;-84
2023/03/08 19:17:19;;;;;;;14.30;7.20;;;;;;;17.91;50.07;97138.37;267528;1278;24220;-84
2023/03/08 19:23:25;;;;;;;11.20;6.40;;;;;;;17.81;50.08;97120.24;267412;1279;22597;-87
2023/03/08 19:29:31;;;;;;;12.10;6.20;;;;;;;17.62;50.31;97118.10;267295;1279;22587;-84
2023/03/08 19:35:35;;;;;;;;;;;;;;;17.85;49.79;97112.42;267460;1279;22518;-82
2023/03/08 19:41:41;;;;;;;13.80;7.50;;;;;;;17.42;49.79;97103.99;267353;1278;25288;-84
2023/03/08 19:47:44;;;;;;;16.40;7.40;;;;;;;17.69;49.08;97103.16;264848;1273;3143997;-83
2023/03/08 19:53:48;;;;;;;16.60;8.70;;;;;;;17.67;48.71;97097.12;267181;1279;25414;-78
2023/03/08 19:59:51;;;;;;;20.80;7.90;;;;;;;17.77;47.93;97091.08;265829;1273;24221;-78
2023/03/08 20:06:06;;;;;;;14.10;7.90;;;;;;;17.97;47.86;97087.49;266552;1273;22491;-85
2023/03/08 20:12:13;;;;;;;16.70;7.50;;;;;;;17.79;49.30;97074.91;267361;1278;22572;-85
2023/03/08 20:18:28;;;;;;;16.30;8.00;;;;;;;17.82;49.59;97070.90;267545;1255;23003;-88
2023/03/08 20:24:56;;;;;;;13.60;7.30;;;;;;;17.80;49.67;97049.10;267294;1279;22569;-84
2023/03/08 20:31:07;;;;;;;14.80;8.00;;;;;;;17.76;49.70;97047.71;266678;1279;22542;-81
2023/03/08 20:37:15;;;;;;;13.60;7.50;;;;;;;17.67;49.88;97041.88;266967;1278;24085;-82
2023/03/08 20:43:19;;;;;;;19.70;10.00;;;;;;;17.67;49.72;97031.83;266818;1278;22538;-82
2023/03/08 20:49:25;;;;;;;14.80;8.40;;;;;;;17.72;48.93;97025.80;266699;1278;22646;-81
2023/03/08 20:55:28;;;;;;;17.90;10.10;;;;;;;17.94;48.59;97014.21;266293;1278;22569;-81
2023/03/08 21:01:32;;;;;;;18.40;10.00;;;;;;;17.83;48.28;97009.31;265676;1275;23178;-76
2023/03/08 21:07:38;;;;;;;18.90;10.10;;;;;;;17.96;48.61;97006.61;265942;1279;22573;-83
2023/03/08 21:13:42;;;;;;;15.20;8.60;;;;;;;17.88;49.03;96995.98;265798;1278;22645;-81
2023/03/08 21:19:45;;;;;;;20.70;10.80;;;;;;;17.48;50.08;96983.31;266765;1278;22540;-82
2023/03/08 21:25:50;;;;;;;18.40;10.80;;;;;;;17.42;49.38;96984.61;266949;1276;26549;-81
2023/03/08 21:31:53;;;;;;;19.60;11.40;;;;;;;17.60;48.47;96985.01;267068;1278;22531;-80
2023/03/08 21:37:58;;;;;;;18.60;10.70;;;;;;;17.60;48.08;96970.20;266191;1272;24317;-80
2023/03/08 21:44:03;;;;;;;20.10;11.10;;;;;;;17.24;48.19;96967.31;266685;1279;24224;-78
2023/03/08 21:50:07;;;;;;;18.20;10.90;;;;;;;17.53;48.74;96960.55;265900;1278;23911;-79
2023/03/08 21:56:15;;;;;;;23.30;12.30;;;;;;;17.47;49.43;96956.21;265842;1273;24350;-83
2023/03/08 22:02:18;;;;;;;19.20;11.20;;;;;;;17.45;49.40;96954.73;265956;1279;22945;-80
2023/03/08 22:08:24;;;;;;;21.80;11.60;;;;;;;17.43;49.76;96953.71;266899;1279;22541;-81
2023/03/08 22:14:28;;;;;;;17.60;10.20;;;;;;;17.45;49.52;96948.75;267054;1279;24253;-80
2023/03/08 22:20:34;;;;;;;18.40;11.30;;;;;;;17.67;49.76;96950.89;267325;1278;22647;-80
2023/03/08 22:26:37;;;;;;;17.30;11.20;;;;;;;17.57;50.08;96945.58;267029;1276;22569;-80
2023/03/08 22:32:40;;;;;;;18.80;11.00;;;;;;;17.46;50.47;96947.46;266985;1272;22542;-80
2023/03/08 22:38:44;;;;;;;20.90;11.20;;;;;;;17.52;50.36;96940.79;266510;1279;22638;-76
2023/03/08 22:44:47;;;;;;;19.90;11.80;;;;;;;17.52;50.25;96941.02;265488;1274;22677;-76
2023/03/08 22:50:50;;;;;;;18.50;9.80;;;;;;;17.43;50.59;96941.98;265441;1280;22987;-78
2023/03/08 22:57:12;;;;;;;12.50;6.80;;;;;;;17.46;51.38;96940.30;265550;1276;22660;-77
2023/03/08 23:03:15;;;;;;;10.80;5.90;;;;;;;17.88;51.86;96935.63;265697;1280;22579;-77
2023/03/08 23:09:21;;;;;;;10.20;5.00;;;;;;;18.30;51.58;96931.64;265286;1278;24254;-78
2023/03/08 23:15:27;;;;;;;10.40;5.50;;;;;;;18.47;51.80;96932.38;265621;1280;24246;-78
2023/03/08 23:21:30;;;;;;;9.80;5.60;;;;;;;18.77;51.27;96931.80;265605;1279;24284;-78
2023/03/08 23:27:33;;;;;;;8.90;5.30;;;;;;;18.90;51.41;96929.52;265720;1280;25290;-77
2023/03/08 23:33:39;;;;;;;10.30;5.70;;;;;;;18.88;51.37;96927.41;266419;1279;24205;-79
2023/03/08 23:39:42;;;;;;;9.50;5.60;;;;;;;18.90;51.40;96924.93;266513;1279;22511;-79
2023/03/08 23:45:45;;;;;;;12.80;5.80;;;;;;;18.88;51.74;96924.02;266749;1279;23189;-78
2023/03/08 23:51:51;;;;;;;8.30;5.30;;;;;;;18.91;51.87;96926.11;267157;1279;22628;-83
2023/03/08 23:58:00;;;;;;;9.40;5.70;;;;;;;19.10;51.80;96921.29;266896;1279;23287;-83
